Startpagina
METAR-TAF:

METAR-TAF

Vliegvelden :

Luchthaven Baia Mare

Baia Mare, Roemenië

breedte: 47-40N, lengte: 023-35E, hoogte: 218 m

Actueel weer

Dit bericht is 43 minuten geleden gemaakt, om 01:30 UTC
Wind 2 kt uit het westzuidwesten
Temperatuur 10°C
Vochtigheid 93%
Druk 1020 hPa
Zicht: 3900 m
nevel

METAR: LRBM 200130Z AUTO 25002KT 3900 BR FEW014/// SCT200/// 10/09 Q1020

Tijdstip: 05:13 (02:13 UTC)

Verwachting

Dit bericht is 15 uur en het 13 minuten geleden gemaakt, om 11:00 UTC
Verwachting geldig van 19 om 12 UTC tot 19 om 21 UTC
Wind 10 kt uit het westen
Zicht 10 km of meer
geen wolken onder 1500 m en geen cumulonimbus
Wijzigt naar
van 19 om 16 UTC tot 19 om 18 UTC
Wind 4 kt uit variabele richting

TAF: LRBM 191100Z 1912/1921 27010KT CAVOK BECMG 1916/1918 VRB04KT

Waarnemingen en weersverwachtingen van meer dan 4000 vliegvelden (METAR en TAF).

De beschikbare stations zijn de gele en rode punten op de kaart.

Ga met uw muis naar het station om de naam te zien.

Klik dan om waarnemingen en weersverwachtingen te zien.

kaart wijzigen: klik op de groene knoppen met een zwart kruis om in te zoomen, op de groene knop met een streepje om uit te zoomen of op de groene pijlen voor aangrenzende kaarten.


METAR-TAF: